Time;durP1;ratioP1;P1;durP2;ratioP2;P2;SDS_P1;SDS_P2;PMS_P1;PMS_P2;Temp;Humidity;BMP_temperature;BMP_pressure;BME280_temperature;BME280_humidity;BME280_pressure;Samples;Min_cycle;Max_cycle;Signal;HPM_P1;HPM_P2
2021/04/03 00:00:19;;;;;;;7.47;4.38;;;11.70;74.70;;;;;;5046809;28;20570;-58
2021/04/03 00:02:46;;;;;;;5.32;3.60;;;11.50;74.60;;;;;;5046479;28;20672;-58
2021/04/03 00:05:13;;;;;;;4.15;3.70;;;11.60;74.30;;;;;;5045920;28;20025;-58
2021/04/03 00:07:39;;;;;;;4.85;3.63;;;11.60;74.40;;;;;;5046247;28;20029;-57
2021/04/03 00:10:26;;;;;;;4.55;3.42;;;11.60;74.30;;;;;;5046646;28;20388;-58
2021/04/03 00:12:52;;;;;;;6.22;3.88;;;11.50;74.90;;;;;;5047054;28;20117;-58
2021/04/03 00:15:19;;;;;;;6.32;3.75;;;11.50;75.00;;;;;;5047256;28;20025;-58
2021/04/03 00:17:46;;;;;;;8.63;4.82;;;11.50;74.90;;;;;;5046825;28;20049;-58
2021/04/03 00:20:14;;;;;;;6.03;4.80;;;11.30;75.50;;;;;;5046719;28;20024;-58
2021/04/03 00:22:39;;;;;;;7.00;4.70;;;11.30;75.90;;;;;;5046770;28;20039;-58
2021/04/03 00:25:06;;;;;;;6.63;4.25;;;11.10;76.30;;;;;;5047717;28;20502;-57
2021/04/03 00:27:32;;;;;;;6.45;4.45;;;11.20;76.80;;;;;;5047103;28;20032;-57
2021/04/03 00:29:59;;;;;;;5.57;4.15;;;11.20;76.70;;;;;;5047043;28;20025;-58
2021/04/03 00:32:26;;;;;;;6.43;4.28;;;11.10;77.00;;;;;;5046824;28;20105;-58
2021/04/03 00:34:53;;;;;;;6.63;4.78;;;11.00;77.60;;;;;;5046606;28;20124;-58
2021/04/03 00:37:19;;;;;;;5.88;4.53;;;11.00;77.50;;;;;;5046694;28;20029;-57
2021/04/03 00:39:46;;;;;;;5.00;4.38;;;11.10;77.50;;;;;;5046549;28;20610;-58
2021/04/03 00:42:21;;;;;;;7.03;4.65;;;10.90;78.50;;;;;;5046680;28;20495;-57
2021/04/03 00:44:48;;;;;;;6.63;5.00;;;11.00;78.10;;;;;;5046440;28;20508;-58
2021/04/03 00:47:15;;;;;;;6.28;4.82;;;11.00;78.40;;;;;;5046614;28;20041;-57
2021/04/03 00:49:44;;;;;;;6.05;4.50;;;11.00;78.30;;;;;;5046377;28;20282;-58
2021/04/03 00:52:13;;;;;;;5.70;3.92;;;10.90;78.60;;;;;;5046867;28;20032;-58
2021/04/03 00:54:41;;;;;;;5.00;3.97;;;11.00;78.40;;;;;;5046021;28;20033;-58
2021/04/03 00:57:08;;;;;;;7.68;4.97;;;11.10;78.20;;;;;;5046809;28;20407;-58
2021/04/03 00:59:34;;;;;;;4.72;4.15;;;10.90;79.00;;;;;;5046559;28;20050;-57
2021/04/03 01:02:00;;;;;;;6.32;4.38;;;10.90;79.30;;;;;;5046149;28;20033;-57
2021/04/03 01:04:26;;;;;;;5.25;3.90;;;10.90;79.50;;;;;;5045921;28;20529;-57
2021/04/03 01:06:51;;;;;;;4.50;3.58;;;10.80;79.80;;;;;;5045683;28;20555;-57
2021/04/03 01:09:18;;;;;;;5.68;4.20;;;10.90;79.90;;;;;;5044410;28;20390;-57
2021/04/03 01:12:07;;;;;;;6.60;4.30;;;10.70;80.10;;;;;;5045566;28;20041;-58
2021/04/03 01:14:46;;;;;;;6.90;3.80;;;10.80;80.00;;;;;;5045944;28;20042;-58
2021/04/03 01:17:55;;;;;;;5.72;4.25;;;10.70;80.40;;;;;;5045945;28;20029;-57
2021/04/03 01:20:40;;;;;;;6.57;4.38;;;10.50;81.30;;;;;;5045536;28;20514;-57
2021/04/03 01:23:25;;;;;;;6.13;4.30;;;10.60;81.30;;;;;;5046820;28;20095;-58
2021/04/03 01:26:18;;;;;;;9.32;5.07;;;10.60;81.20;;;;;;5045887;28;20037;-57
2021/04/03 01:29:12;;;;;;;5.15;4.32;;;10.50;81.70;;;;;;5045805;28;20079;-57
2021/04/03 01:31:39;;;;;;;6.20;4.97;;;10.50;81.80;;;;;;5045390;28;20040;-58
2021/04/03 01:34:08;;;;;;;7.28;4.40;;;10.40;82.10;;;;;;5045936;28;20036;-57
2021/04/03 01:36:40;;;;;;;7.78;4.25;;;10.40;82.10;;;;;;5045982;28;20029;-57
2021/04/03 01:39:22;;;;;;;5.32;4.05;;;10.50;82.30;;;;;;5045582;28;20387;-57
2021/04/03 01:41:53;;;;;;;7.60;4.40;;;10.40;82.40;;;;;;5045192;28;20029;-57
2021/04/03 01:44:27;;;;;;;6.45;3.60;;;10.40;82.70;;;;;;5045624;28;20040;-57
2021/04/03 01:46:53;;;;;;;6.05;4.38;;;10.30;82.80;;;;;;5045333;28;20103;-57
2021/04/03 01:49:23;;;;;;;6.35;4.60;;;10.30;83.10;;;;;;5045218;28;20028;-57
2021/04/03 01:51:51;;;;;;;7.15;5.30;;;10.30;83.30;;;;;;5045091;28;20029;-57
2021/04/03 01:54:19;;;;;;;7.15;4.47;;;10.10;84.00;;;;;;5045081;28;20035;-58
2021/04/03 01:56:48;;;;;;;6.80;4.78;;;10.10;84.20;;;;;;5045131;28;20052;-57
2021/04/03 01:59:14;;;;;;;6.72;3.92;;;10.10;83.90;;;;;;5045249;28;20018;-57
2021/04/03 02:01:44;;;;;;;4.22;3.55;;;10.10;84.50;;;;;;5044809;28;20148;-57
2021/04/03 02:04:12;;;;;;;6.85;3.83;;;10.30;83.90;;;;;;5045302;28;20035;-58
2021/04/03 02:06:41;;;;;;;4.43;3.55;;;10.20;84.20;;;;;;5044347;28;20495;-58
2021/04/03 02:09:11;;;;;;;5.05;3.47;;;10.30;84.20;;;;;;5044341;28;20044;-57
2021/04/03 02:11:41;;;;;;;5.32;3.83;;;10.30;84.20;;;;;;5045384;28;20029;-57
2021/04/03 02:14:08;;;;;;;5.10;3.28;;;10.30;83.80;;;;;;5045507;28;20033;-57
2021/04/03 02:16:36;;;;;;;9.60;4.03;;;10.20;84.80;;;;;;5045269;28;20025;-57
2021/04/03 02:19:06;;;;;;;5.25;3.40;;;10.20;84.60;;;;;;5043509;28;20020;-57
2021/04/03 02:21:34;;;;;;;4.88;3.72;;;10.20;84.50;;;;;;5044354;28;20032;-57
2021/04/03 02:24:00;;;;;;;5.65;4.20;;;10.20;84.80;;;;;;5044054;28;20568;-57
2021/04/03 02:26:29;;;;;;;6.75;4.53;;;10.00;85.60;;;;;;5043195;28;20488;-57
2021/04/03 02:28:56;;;;;;;5.32;4.20;;;9.80;86.50;;;;;;5044709;28;20111;-57
2021/04/03 02:31:22;;;;;;;6.18;4.72;;;10.00;86.00;;;;;;5044838;28;20090;-57
2021/04/03 02:33:48;;;;;;;5.10;3.83;;;9.90;86.50;;;;;;5044004;28;20033;-57
2021/04/03 02:36:13;;;;;;;4.60;3.38;;;9.90;86.50;;;;;;5045024;28;20021;-57
2021/04/03 02:38:39;;;;;;;3.80;3.13;;;10.00;86.60;;;;;;5044127;28;20023;-57
2021/04/03 02:41:08;;;;;;;5.85;3.20;;;9.90;86.80;;;;;;5045188;28;20083;-58
2021/04/03 02:43:52;;;;;;;5.05;3.75;;;10.00;86.20;;;;;;5044924;28;20025;-57
2021/04/03 02:46:36;;;;;;;7.80;4.25;;;9.90;86.70;;;;;;5044239;28;20456;-57
2021/04/03 02:49:04;;;;;;;4.55;3.30;;;9.80;87.50;;;;;;5043299;28;20106;-57
2021/04/03 02:51:40;;;;;;;5.18;3.72;;;9.90;87.20;;;;;;5043829;28;20033;-58
2021/04/03 02:54:10;;;;;;;5.80;4.07;;;9.70;87.60;;;;;;5045031;28;20106;-57
2021/04/03 02:56:42;;;;;;;6.03;3.90;;;9.60;88.20;;;;;;5044893;28;20029;-57
2021/04/03 02:59:33;;;;;;;5.32;3.90;;;9.70;87.80;;;;;;5043898;28;20630;-57
2021/04/03 03:02:02;;;;;;;10.75;5.03;;;9.60;88.10;;;;;;5044438;28;20135;-57
2021/04/03 03:04:29;;;;;;;4.55;3.90;;;9.50;89.10;;;;;;5043955;28;20264;-57
2021/04/03 03:06:57;;;;;;;4.97;3.22;;;9.60;89.20;;;;;;5043940;28;20025;-57
2021/04/03 03:09:24;;;;;;;4.05;3.33;;;9.50;89.10;;;;;;5044199;28;20149;-57
2021/04/03 03:11:54;;;;;;;6.28;3.50;;;9.50;89.20;;;;;;5043186;28;20035;-57
2021/04/03 03:14:22;;;;;;;5.60;3.53;;;9.40;89.90;;;;;;5044768;28;20029;-57
2021/04/03 03:16:51;;;;;;;8.52;4.38;;;9.50;89.50;;;;;;5050982;28;20107;-57
2021/04/03 03:19:19;;;;;;;4.53;3.35;;;9.50;89.80;;;;;;5063593;28;20035;-57
2021/04/03 03:21:46;;;;;;;4.85;3.42;;;9.40;89.90;;;;;;5062251;28;20509;-57
2021/04/03 03:24:13;;;;;;;5.72;4.35;;;9.40;90.00;;;;;;5064169;28;20021;-57
2021/04/03 03:26:40;;;;;;;7.45;4.45;;;9.40;90.00;;;;;;5063203;28;20020;-57
2021/04/03 03:29:12;;;;;;;5.85;4.90;;;9.20;90.40;;;;;;5063101;28;20056;-57
2021/04/03 03:31:42;;;;;;;5.28;3.78;;;9.30;90.60;;;;;;5063807;28;20456;-57
2021/04/03 03:34:09;;;;;;;6.20;3.60;;;9.30;90.40;;;;;;5063497;28;20107;-57
2021/04/03 03:36:37;;;;;;;5.65;4.22;;;9.30;90.40;;;;;;5063574;28;20037;-57
2021/04/03 03:39:05;;;;;;;4.95;3.58;;;9.30;90.30;;;;;;5063837;28;20036;-57
2021/04/03 03:41:34;;;;;;;5.35;3.97;;;9.30;90.50;;;;;;5063753;28;20134;-57
2021/04/03 03:44:02;;;;;;;10.07;4.30;;;9.20;90.60;;;;;;5063913;28;20024;-57
2021/04/03 03:46:27;;;;;;;6.15;4.38;;;9.00;90.90;;;;;;5064240;28;20524;-57
2021/04/03 03:48:54;;;;;;;5.78;4.10;;;9.00;90.90;;;;;;5062973;28;20032;-57
2021/04/03 03:51:21;;;;;;;5.72;3.67;;;9.00;91.00;;;;;;5064016;28;20036;-57
2021/04/03 03:53:46;;;;;;;6.60;4.55;;;9.10;90.90;;;;;;5063568;28;20455;-57
2021/04/03 03:56:14;;;;;;;7.00;4.25;;;9.00;91.00;;;;;;5064296;28;20078;-57
2021/04/03 03:58:42;;;;;;;6.47;4.50;;;8.90;91.30;;;;;;5063565;28;20036;-57
2021/04/03 04:01:08;;;;;;;7.75;4.82;;;9.00;91.40;;;;;;5065512;28;20419;-56
2021/04/03 04:03:35;;;;;;;7.20;4.72;;;8.90;91.20;;;;;;5066789;28;20024;-57
2021/04/03 04:06:01;;;;;;;6.72;4.57;;;9.10;91.10;;;;;;5067070;28;20024;-57
2021/04/03 04:08:27;;;;;;;7.18;4.60;;;9.10;90.90;;;;;;5067557;28;20429;-57
2021/04/03 04:10:53;;;;;;;7.03;4.18;;;9.10;90.90;;;;;;5067139;28;20078;-57
2021/04/03 04:13:19;;;;;;;7.72;5.10;;;8.90;91.20;;;;;;5066984;28;20788;-57
2021/04/03 04:15:45;;;;;;;7.78;4.57;;;8.80;91.50;;;;;;5067154;28;20075;-57
2021/04/03 04:18:10;;;;;;;6.82;5.05;;;9.00;91.20;;;;;;5066880;28;20402;-57
2021/04/03 04:20:36;;;;;;;8.68;4.80;;;9.10;91.10;;;;;;5066471;28;20021;-57
2021/04/03 04:23:03;;;;;;;8.98;6.30;;;9.00;91.10;;;;;;5066972;28;20028;-57
2021/04/03 04:25:29;;;;;;;8.70;5.88;;;8.70;91.50;;;;;;5067118;28;20503;-58
2021/04/03 04:27:55;;;;;;;7.82;5.10;;;8.70;91.70;;;;;;5066683;28;20043;-56
2021/04/03 04:30:22;;;;;;;7.95;5.28;;;8.80;91.60;;;;;;5066067;28;20033;-57
2021/04/03 04:32:47;;;;;;;8.18;5.70;;;8.70;91.80;;;;;;5066245;28;20090;-57
2021/04/03 04:35:14;;;;;;;8.77;5.65;;;8.60;92.10;;;;;;5066924;28;20032;-56
2021/04/03 04:37:41;;;;;;;8.57;5.38;;;8.50;92.20;;;;;;5066281;28;20025;-57
2021/04/03 04:40:09;;;;;;;11.13;6.88;;;8.60;92.10;;;;;;5066729;28;20028;-57
2021/04/03 04:42:37;;;;;;;9.15;5.65;;;8.50;92.20;;;;;;5066321;28;20116;-56
2021/04/03 04:45:04;;;;;;;11.02;6.70;;;8.60;92.00;;;;;;5066577;28;20020;-57
2021/04/03 04:47:30;;;;;;;9.07;5.55;;;8.40;92.20;;;;;;5066213;28;20036;-57
2021/04/03 04:49:56;;;;;;;9.50;6.22;;;8.50;92.30;;;;;;5067149;28;20089;-56
2021/04/03 04:52:22;;;;;;;11.75;6.60;;;8.40;92.50;;;;;;5066893;28;20028;-57
2021/04/03 04:54:48;;;;;;;13.95;7.95;;;8.40;92.50;;;;;;5066179;28;20052;-57
2021/04/03 04:57:14;;;;;;;13.63;7.75;;;8.20;92.80;;;;;;5066545;28;20541;-56
2021/04/03 04:59:39;;;;;;;14.40;7.70;;;8.00;93.30;;;;;;5065781;28;20482;-57
2021/04/03 05:02:05;;;;;;;11.45;7.38;;;8.20;93.20;;;;;;5066090;28;20024;-61
2021/04/03 05:04:31;;;;;;;11.90;7.20;;;8.00;93.20;;;;;;5065889;28;20013;-61
2021/04/03 05:06:56;;;;;;;12.35;7.45;;;8.10;93.10;;;;;;5066345;28;20481;-62
2021/04/03 05:09:22;;;;;;;13.07;7.78;;;8.00;93.40;;;;;;5063939;28;20023;-62
2021/04/03 05:11:47;;;;;;;13.20;7.47;;;7.80;93.80;;;;;;5065511;28;20027;-62
2021/04/03 05:14:13;;;;;;;13.52;7.65;;;7.90;93.70;;;;;;5065055;28;20245;-61
2021/04/03 05:16:39;;;;;;;16.80;9.80;;;7.90;93.60;;;;;;5065329;28;20397;-62
2021/04/03 05:19:04;;;;;;;17.60;9.98;;;7.70;93.80;;;;;;5065796;28;20505;-61
2021/04/03 05:21:31;;;;;;;15.60;9.38;;;7.80;93.80;;;;;;5065885;28;20051;-61
2021/04/03 05:23:58;;;;;;;13.25;8.60;;;7.60;94.10;;;;;;5065739;28;20117;-61
2021/04/03 05:26:23;;;;;;;15.02;7.80;;;7.70;94.20;;;;;;5065104;28;20036;-61
2021/04/03 05:28:49;;;;;;;14.93;9.05;;;7.70;94.00;;;;;;5065262;28;20425;-60
2021/04/03 05:31:20;;;;;;;15.63;8.90;;;7.60;94.30;;;;;;5065407;28;20090;-61
2021/04/03 05:33:46;;;;;;;16.20;8.18;;;7.60;94.20;;;;;;5065266;28;20528;-61
2021/04/03 05:36:13;;;;;;;13.80;8.27;;;7.60;94.20;;;;;;5065643;28;20103;-62
2021/04/03 05:38:39;;;;;;;16.20;8.50;;;7.50;94.50;;;;;;5065737;28;20406;-61
2021/04/03 05:41:04;;;;;;;16.17;9.40;;;7.70;94.30;;;;;;5065498;28;20024;-61
2021/04/03 05:43:31;;;;;;;15.00;8.55;;;7.60;94.30;;;;;;5065271;28;20115;-61
2021/04/03 05:45:57;;;;;;;17.88;9.93;;;7.30;94.70;;;;;;5063982;28;20600;-61
2021/04/03 05:48:24;;;;;;;16.40;9.75;;;7.30;95.10;;;;;;5058664;28;20028;-61
2021/04/03 05:50:53;;;;;;;15.02;9.20;;;7.40;95.00;;;;;;5066436;28;20056;-61
2021/04/03 05:53:23;;;;;;;14.93;9.18;;;7.30;95.00;;;;;;5066378;28;20662;-62
2021/04/03 05:55:53;;;;;;;19.13;9.30;;;7.30;95.20;;;;;;5046370;28;20521;-61
2021/04/03 05:58:19;;;;;;;15.45;8.70;;;7.40;95.10;;;;;;5046591;28;20052;-61
2021/04/03 06:00:45;;;;;;;17.73;10.50;;;7.60;94.70;;;;;;5046826;28;20960;-61
2021/04/03 06:03:11;;;;;;;19.70;10.88;;;7.20;95.30;;;;;;5052773;28;20099;-61
2021/04/03 06:05:38;;;;;;;13.93;8.70;;;7.10;95.60;;;;;;5055778;28;20506;-61
2021/04/03 06:08:03;;;;;;;19.23;11.02;;;7.20;95.70;;;;;;5053574;28;20485;-61
2021/04/03 06:10:29;;;;;;;15.93;8.77;;;7.10;95.50;;;;;;5045999;28;20064;-61
2021/04/03 06:12:55;;;;;;;12.30;7.68;;;7.30;95.40;;;;;;5046411;28;20108;-61
2021/04/03 06:15:26;;;;;;;14.15;7.93;;;7.30;95.60;;;;;;5046174;28;20032;-61
2021/04/03 06:17:57;;;;;;;19.98;10.38;;;7.40;95.30;;;;;;5055393;28;20025;-62
2021/04/03 06:20:34;;;;;;;16.15;8.30;;;7.20;95.70;;;;;;5066324;28;20376;-61
2021/04/03 06:23:01;;;;;;;15.13;9.02;;;7.20;95.50;;;;;;5063905;28;20103;-61
2021/04/03 06:25:27;;;;;;;16.85;9.65;;;7.00;95.90;;;;;;5053454;28;20036;-61
2021/04/03 06:28:09;;;;;;;20.90;11.82;;;7.00;96.00;;;;;;5051463;28;20027;-61
2021/04/03 06:30:37;;;;;;;16.25;9.23;;;6.70;96.90;;;;;;5047677;28;20032;-60
2021/04/03 06:33:21;;;;;;;17.67;10.23;;;6.80;96.80;;;;;;5046411;28;20055;-61
2021/04/03 06:36:16;;;;;;;14.60;8.35;;;7.00;96.30;;;;;;5046068;28;20021;-61
2021/04/03 06:38:43;;;;;;;15.75;8.43;;;7.10;96.20;;;;;;5049421;28;20021;-61
2021/04/03 06:41:27;;;;;;;22.30;9.65;;;7.10;96.30;;;;;;5051619;28;20025;-61
2021/04/03 06:44:11;;;;;;;14.40;7.95;;;7.20;96.30;;;;;;5052148;28;20021;-61
2021/04/03 06:46:40;;;;;;;15.80;9.87;;;7.30;96.10;;;;;;5046102;28;20041;-61
2021/04/03 06:49:06;;;;;;;19.77;10.20;;;7.00;96.70;;;;;;5045194;28;20358;-61
2021/04/03 06:51:32;;;;;;;14.68;8.15;;;7.00;97.00;;;;;;5043838;28;20024;-61
2021/04/03 06:54:01;;;;;;;21.73;10.20;;;7.20;96.70;;;;;;5051045;28;20055;-61
2021/04/03 06:56:30;;;;;;;15.40;8.85;;;6.90;97.00;;;;;;5063989;28;20379;-60
2021/04/03 06:59:04;;;;;;;17.05;9.55;;;7.10;96.70;;;;;;5050618;28;20032;-60
2021/04/03 07:01:53;;;;;;;16.80;9.88;;;6.90;97.10;;;;;;5053068;28;20021;-61
2021/04/03 07:04:29;;;;;;;14.43;8.65;;;6.80;97.30;;;;;;5058292;28;20029;-61
2021/04/03 07:06:57;;;;;;;15.95;9.45;;;7.00;97.20;;;;;;5051827;28;20025;-61
2021/04/03 07:09:24;;;;;;;16.20;9.07;;;7.10;97.30;;;;;;5051072;28;20075;-62
2021/04/03 07:11:52;;;;;;;20.77;12.10;;;7.10;97.10;;;;;;5044312;28;20035;-61
2021/04/03 07:14:19;;;;;;;20.77;10.45;;;6.80;97.90;;;;;;5044572;28;20434;-61
2021/04/03 07:16:47;;;;;;;16.33;9.75;;;7.00;97.60;;;;;;5046600;28;20028;-61
2021/04/03 07:19:14;;;;;;;17.25;10.05;;;7.10;97.90;;;;;;5056117;28;20631;-61
2021/04/03 07:21:41;;;;;;;14.63;9.05;;;7.10;97.40;;;;;;5056044;28;20550;-62
2021/04/03 07:24:09;;;;;;;14.98;8.95;;;7.40;97.00;;;;;;5043669;28;20090;-62
2021/04/03 07:26:36;;;;;;;12.55;7.13;;;7.50;97.00;;;;;;5043352;28;20124;-63
2021/04/03 07:29:03;;;;;;;12.70;7.55;;;7.80;96.40;;;;;;5049274;28;20029;-62
2021/04/03 07:31:45;;;;;;;12.82;7.50;;;7.90;96.10;;;;;;5043092;28;20556;-62
2021/04/03 07:34:11;;;;;;;15.07;7.90;;;7.80;96.00;;;;;;5056946;28;20040;-61
2021/04/03 07:36:39;;;;;;;11.70;6.93;;;8.00;95.70;;;;;;5051274;28;20024;-62
2021/04/03 07:39:07;;;;;;;12.57;7.65;;;8.10;96.10;;;;;;5067732;28;20036;-62
2021/04/03 07:41:39;;;;;;;12.77;7.53;;;7.90;96.20;;;;;;5065194;28;20032;-62
2021/04/03 07:44:14;;;;;;;11.18;7.03;;;7.90;96.20;;;;;;5049127;28;20102;-63
2021/04/03 07:46:44;;;;;;;11.77;7.10;;;7.90;96.00;;;;;;5053108;28;20043;-63
2021/04/03 07:49:29;;;;;;;10.48;6.85;;;8.20;95.80;;;;;;5049513;28;20021;-61
2021/04/03 07:51:55;;;;;;;10.18;6.63;;;8.40;95.40;;;;;;5069311;28;20123;-61
2021/04/03 07:54:26;;;;;;;15.20;8.80;;;8.10;95.70;;;;;;5068944;28;20096;-62
2021/04/03 07:56:57;;;;;;;13.32;8.35;;;7.70;96.90;;;;;;5068647;28;20035;-61
2021/04/03 07:59:42;;;;;;;15.13;8.70;;;7.70;96.80;;;;;;5068423;28;20039;-62
2021/04/03 08:02:15;;;;;;;16.17;8.65;;;8.00;96.90;;;;;;5067934;28;20028;-62
2021/04/03 08:04:43;;;;;;;14.43;8.77;;;8.00;96.30;;;;;;5067853;28;20513;-61
2021/04/03 08:07:09;;;;;;;15.88;9.27;;;8.00;96.20;;;;;;5067752;28;20403;-62
2021/04/03 08:09:36;;;;;;;12.85;7.57;;;7.90;96.70;;;;;;5067243;28;20025;-62
2021/04/03 08:12:03;;;;;;;11.63;8.13;;;8.00;96.80;;;;;;5054826;28;20056;-62
2021/04/03 08:14:31;;;;;;;13.60;8.60;;;8.10;96.10;;;;;;5048557;28;20053;-62
2021/04/03 08:16:58;;;;;;;12.25;7.20;;;8.10;96.20;;;;;;5048394;28;20104;-62
2021/04/03 08:19:29;;;;;;;12.77;7.90;;;8.10;96.30;;;;;;5048163;28;20043;-63
2021/04/03 08:21:55;;;;;;;14.32;7.88;;;8.20;96.20;;;;;;5048068;28;20029;-61
2021/04/03 08:24:23;;;;;;;18.30;10.32;;;8.20;96.10;;;;;;5045967;28;20410;-62
2021/04/03 08:26:50;;;;;;;17.75;10.38;;;7.90;96.70;;;;;;5047878;28;20096;-62
2021/04/03 08:29:27;;;;;;;15.00;10.02;;;8.00;97.00;;;;;;5047439;28;20043;-61
2021/04/03 08:31:55;;;;;;;13.88;8.18;;;8.10;96.30;;;;;;5048161;28;20095;-63
2021/04/03 08:34:21;;;;;;;14.73;8.25;;;8.20;96.60;;;;;;5048162;28;20025;-62
2021/04/03 08:36:47;;;;;;;14.40;8.65;;;8.10;96.50;;;;;;5047683;28;20021;-62
2021/04/03 08:39:17;;;;;;;10.45;6.80;;;8.20;96.70;;;;;;5047626;28;20032;-63
2021/04/03 08:41:45;;;;;;;16.65;8.63;;;8.50;96.40;;;;;;5047102;28;20404;-64
2021/04/03 08:44:23;;;;;;;15.18;8.43;;;8.30;96.00;;;;;;5047406;28;20039;-62
2021/04/03 08:46:51;;;;;;;15.18;8.25;;;8.40;96.50;;;;;;5046768;28;20475;-64
2021/04/03 08:49:37;;;;;;;13.13;8.35;;;8.40;96.40;;;;;;5058040;28;20115;-63
2021/04/03 08:52:07;;;;;;;10.98;6.45;;;8.70;96.50;;;;;;5066334;28;20016;-62
2021/04/03 08:54:37;;;;;;;13.25;7.07;;;8.70;95.70;;;;;;5059233;28;20706;-63
2021/04/03 08:57:29;;;;;;;17.00;8.15;;;8.80;95.60;;;;;;5063506;28;20021;-63
2021/04/03 08:59:56;;;;;;;15.85;9.68;;;8.90;95.70;;;;;;5049940;28;20067;-61
2021/04/03 09:02:22;;;;;;;15.65;9.88;;;8.50;95.90;;;;;;5048036;28;20021;-62
2021/04/03 09:04:48;;;;;;;20.65;12.80;;;8.50;96.40;;;;;;5046655;28;20028;-63
2021/04/03 09:07:37;;;;;;;14.98;9.63;;;8.30;96.30;;;;;;5048530;28;20029;-61
2021/04/03 09:10:10;;;;;;;17.02;10.05;;;8.60;96.20;;;;;;5066904;28;20039;-62
2021/04/03 09:12:36;;;;;;;13.95;9.10;;;8.80;95.80;;;;;;5056598;28;20025;-63
2021/04/03 09:15:06;;;;;;;15.93;9.95;;;8.80;95.60;;;;;;5064238;28;20145;-63
2021/04/03 09:17:32;;;;;;;16.90;10.52;;;8.90;96.00;;;;;;5066812;28;20028;-62
2021/04/03 09:20:11;;;;;;;12.05;8.70;;;8.90;96.00;;;;;;5066639;28;20032;-63
2021/04/03 09:22:39;;;;;;;12.23;8.75;;;9.20;95.60;;;;;;5066314;28;20464;-62
2021/04/03 09:25:13;;;;;;;11.63;8.00;;;9.30;95.90;;;;;;5066925;28;20028;-63
2021/04/03 09:27:40;;;;;;;10.80;7.22;;;9.50;94.90;;;;;;5066654;28;20032;-62
2021/04/03 09:30:11;;;;;;;8.82;6.40;;;9.70;94.70;;;;;;5066650;28;20020;-63
2021/04/03 09:32:42;;;;;;;9.18;6.35;;;9.90;94.40;;;;;;5065865;28;20025;-63
2021/04/03 09:35:09;;;;;;;11.43;6.82;;;10.10;93.80;;;;;;5069719;28;20626;-63
2021/04/03 09:37:35;;;;;;;13.07;8.77;;;10.00;93.60;;;;;;5067180;28;20399;-62
2021/04/03 09:40:01;;;;;;;15.38;9.45;;;9.80;93.80;;;;;;5061318;28;20025;-63
2021/04/03 09:42:28;;;;;;;12.70;7.95;;;9.80;95.10;;;;;;5046341;28;20029;-63
2021/04/03 09:44:59;;;;;;;11.18;7.32;;;9.90;93.80;;;;;;5057113;28;20374;-63
2021/04/03 09:47:26;;;;;;;11.73;7.25;;;10.10;94.00;;;;;;5065571;28;20495;-62
2021/04/03 09:49:52;;;;;;;11.95;7.50;;;10.00;93.50;;;;;;5066712;28;20025;-63
2021/04/03 09:52:19;;;;;;;9.95;6.30;;;10.20;93.90;;;;;;5058864;28;20096;-63
2021/04/03 09:54:48;;;;;;;9.77;7.25;;;10.40;93.50;;;;;;5045908;28;20078;-62
2021/04/03 09:57:15;;;;;;;14.15;8.40;;;10.40;93.30;;;;;;5046020;28;20013;-61
2021/04/03 09:59:42;;;;;;;18.33;11.02;;;10.50;93.20;;;;;;5045832;28;20621;-62
2021/04/03 10:02:09;;;;;;;23.75;15.50;;;10.50;94.00;;;;;;5046313;28;20021;-62
2021/04/03 10:04:35;;;;;;;17.90;12.15;;;10.30;93.80;;;;;;5046257;28;20028;-63
2021/04/03 10:07:01;;;;;;;16.83;10.38;;;10.20;93.80;;;;;;5045673;28;20029;-63
2021/04/03 10:09:27;;;;;;;11.32;7.65;;;10.50;93.60;;;;;;5045746;28;20442;-61
2021/04/03 10:11:54;;;;;;;22.58;13.65;;;10.80;92.80;;;;;;5046504;28;20022;-61
2021/04/03 10:14:21;;;;;;;26.40;17.52;;;10.20;93.30;;;;;;5050294;28;20028;-62
2021/04/03 10:16:46;;;;;;;26.58;16.88;;;10.00;93.90;;;;;;5065880;28;20024;-62
2021/04/03 10:19:12;;;;;;;21.98;15.25;;;9.70;94.30;;;;;;5065904;28;20457;-62
2021/04/03 10:21:39;;;;;;;21.77;12.98;;;9.90;94.90;;;;;;5065596;28;20048;-62
2021/04/03 10:24:06;;;;;;;24.15;14.77;;;10.30;93.80;;;;;;5065855;28;20033;-62
2021/04/03 10:26:32;;;;;;;23.90;14.82;;;10.30;93.60;;;;;;5065658;28;20020;-61
2021/04/03 10:28:57;;;;;;;22.73;14.48;;;10.30;93.80;;;;;;5058344;28;20437;-62
2021/04/03 10:31:23;;;;;;;20.20;12.65;;;10.40;93.70;;;;;;5046548;28;20089;-62
2021/04/03 10:33:49;;;;;;;19.75;12.52;;;10.60;93.50;;;;;;5045296;28;20024;-62
2021/04/03 10:36:15;;;;;;;17.60;11.18;;;10.70;93.00;;;;;;5045953;28;20017;-62
2021/04/03 10:38:44;;;;;;;14.05;8.07;;;10.90;92.70;;;;;;5045367;28;20499;-61
2021/04/03 10:41:10;;;;;;;12.52;8.43;;;11.10;92.00;;;;;;5045700;28;20649;-62
2021/04/03 10:43:36;;;;;;;10.98;7.55;;;11.10;92.20;;;;;;5044915;28;20116;-63
2021/04/03 10:46:03;;;;;;;13.45;9.07;;;11.30;93.10;;;;;;5048362;28;20031;-62
2021/04/03 10:48:28;;;;;;;14.70;9.95;;;11.40;92.20;;;;;;5046682;28;20032;-63
2021/04/03 10:50:55;;;;;;;12.85;8.48;;;11.40;91.80;;;;;;5048435;28;20033;-62
2021/04/03 10:53:20;;;;;;;17.77;11.63;;;11.50;91.30;;;;;;5045803;28;20078;-62
2021/04/03 10:55:46;;;;;;;21.17;14.57;;;11.50;90.90;;;;;;5059125;28;20028;-63
2021/04/03 10:58:12;;;;;;;15.98;10.85;;;11.30;92.00;;;;;;5050631;28;20048;-62
2021/04/03 11:00:38;;;;;;;15.85;10.07;;;11.70;91.80;;;;;;5045036;28;20025;-62
2021/04/03 11:03:04;;;;;;;20.50;12.63;;;11.80;90.90;;;;;;5044619;28;20167;-63
2021/04/03 11:05:30;;;;;;;21.63;14.63;;;11.60;92.20;;;;;;5050787;28;20024;-62
2021/04/03 11:07:55;;;;;;;18.48;11.23;;;11.70;91.00;;;;;;5082558;28;20031;-64
2021/04/03 11:10:21;;;;;;;13.50;9.00;;;11.80;91.10;;;;;;5071808;28;20501;-63
2021/04/03 11:12:47;;;;;;;15.60;9.80;;;12.20;91.60;;;;;;5048697;28;20032;-62
2021/04/03 11:15:13;;;;;;;16.33;10.68;;;12.20;90.00;;;;;;5067792;28;20021;-62
2021/04/03 11:17:39;;;;;;;14.82;9.45;;;12.30;91.10;;;;;;5051106;28;20044;-62
2021/04/03 11:20:07;;;;;;;20.15;12.93;;;12.50;90.40;;;;;;5051339;28;20018;-62
2021/04/03 11:22:33;;;;;;;14.25;10.45;;;12.30;90.30;;;;;;5050809;28;20029;-63
2021/04/03 11:25:00;;;;;;;16.38;10.57;;;12.30;89.90;;;;;;5068662;28;20029;-61
2021/04/03 11:27:26;;;;;;;13.88;9.05;;;12.00;90.60;;;;;;5051030;28;20044;-61
2021/04/03 11:29:51;;;;;;;11.52;7.38;;;12.10;90.60;;;;;;5050820;28;20029;-62
2021/04/03 11:32:17;;;;;;;10.57;6.63;;;12.30;90.80;;;;;;5069777;28;20111;-62
2021/04/03 11:34:43;;;;;;;11.05;7.38;;;12.60;90.00;;;;;;5062166;28;21638;-62
2021/04/03 11:37:09;;;;;;;9.88;7.40;;;12.70;90.00;;;;;;5052191;28;20410;-62
2021/04/03 11:39:35;;;;;;;12.32;7.50;;;12.80;88.90;;;;;;5056232;28;20386;-63
2021/04/03 11:42:01;;;;;;;13.63;7.63;;;13.00;87.30;;;;;;5058847;28;20491;-65
2021/04/03 11:44:27;;;;;;;9.27;6.03;;;13.00;87.60;;;;;;5051544;28;20115;-62
2021/04/03 11:46:53;;;;;;;8.43;5.93;;;13.40;87.20;;;;;;5055496;28;20033;-63
2021/04/03 11:49:19;;;;;;;8.10;5.57;;;13.60;86.50;;;;;;5054346;28;20020;-63
2021/04/03 11:51:45;;;;;;;8.82;5.75;;;13.70;84.70;;;;;;5064034;28;20025;-62
2021/04/03 11:54:12;;;;;;;10.25;6.47;;;13.70;84.00;;;;;;5059747;28;20028;-64
2021/04/03 11:56:37;;;;;;;9.82;6.07;;;13.90;84.50;;;;;;5058353;28;20115;-62
2021/04/03 11:59:04;;;;;;;7.32;5.65;;;14.00;83.60;;;;;;5058181;28;20578;-62
2021/04/03 12:01:30;;;;;;;10.13;7.18;;;14.00;83.70;;;;;;5067921;28;20024;-59
2021/04/03 12:03:56;;;;;;;9.07;6.53;;;13.80;83.10;;;;;;5062988;28;20043;-64
2021/04/03 12:06:21;;;;;;;11.30;8.60;;;13.80;82.70;;;;;;5050370;28;20060;-63
2021/04/03 12:08:47;;;;;;;13.32;9.93;;;13.50;84.40;;;;;;5064772;28;20037;-62
2021/04/03 12:11:13;;;;;;;9.35;7.05;;;13.50;84.80;;;;;;5055373;28;20028;-63
2021/04/03 12:13:39;;;;;;;21.17;9.02;;;14.10;83.40;;;;;;5061969;28;20380;-63
2021/04/03 12:16:05;;;;;;;10.85;7.30;;;13.90;81.90;;;;;;5069006;28;20032;-61
2021/04/03 12:18:31;;;;;;;12.88;9.50;;;14.10;83.40;;;;;;5053179;28;20025;-64
2021/04/03 12:20:57;;;;;;;12.88;8.35;;;13.80;82.20;;;;;;5048721;28;20040;-62
2021/04/03 12:23:22;;;;;;;13.07;9.00;;;13.80;82.10;;;;;;5060931;28;20013;-62
2021/04/03 12:25:48;;;;;;;13.18;9.07;;;13.60;82.70;;;;;;5048902;28;20071;-61
2021/04/03 12:28:14;;;;;;;8.45;5.93;;;13.60;82.60;;;;;;5048426;28;20615;-62
2021/04/03 12:30:40;;;;;;;11.20;5.85;;;14.30;81.80;;;;;;5056919;28;20100;-63
2021/04/03 12:33:05;;;;;;;13.25;8.30;;;14.60;80.60;;;;;;5052711;28;20053;-60
2021/04/03 12:35:31;;;;;;;18.20;9.93;;;14.20;79.90;;;;;;5054513;28;20093;-62
2021/04/03 12:37:57;;;;;;;17.48;9.68;;;13.80;81.10;;;;;;5053005;28;20071;-62
2021/04/03 12:40:23;;;;;;;12.88;8.27;;;13.70;80.40;;;;;;5067669;28;20154;-62
2021/04/03 12:42:49;;;;;;;10.52;7.60;;;14.00;81.50;;;;;;5051496;28;20061;-62
2021/04/03 12:45:14;;;;;;;10.15;6.63;;;14.00;81.30;;;;;;5048436;28;20055;-62
2021/04/03 12:47:42;;;;;;;9.93;5.93;;;14.30;81.00;;;;;;5048162;28;20082;-62
2021/04/03 12:50:09;;;;;;;5.63;4.10;;;14.50;79.70;;;;;;5047789;28;20025;-63
2021/04/03 12:52:35;;;;;;;8.50;5.13;;;14.80;80.90;;;;;;5056585;28;20545;-63